sensor_id;sensor_type;location;lat;lon;timestamp;temperature;humidity
8565;DHT22;4320;51.498;6.556;2023-03-14T00:01:29;12.30;99.90
8565;DHT22;4320;51.498;6.556;2023-03-14T00:03:55;12.40;99.90
8565;DHT22;4320;51.498;6.556;2023-03-14T00:06:21;12.40;99.90
8565;DHT22;4320;51.498;6.556;2023-03-14T00:08:47;12.40;99.90
8565;DHT22;4320;51.498;6.556;2023-03-14T00:11:18;12.40;99.90
8565;DHT22;4320;51.498;6.556;2023-03-14T00:13:47;12.40;99.90
8565;DHT22;4320;51.498;6.556;2023-03-14T00:16:13;12.50;99.90
8565;DHT22;4320;51.498;6.556;2023-03-14T00:18:39;12.50;99.90
8565;DHT22;4320;51.498;6.556;2023-03-14T00:21:06;12.50;99.90
8565;DHT22;4320;51.498;6.556;2023-03-14T00:23:33;12.50;99.90
8565;DHT22;4320;51.498;6.556;2023-03-14T00:26:03;12.50;99.90
8565;DHT22;4320;51.498;6.556;2023-03-14T00:28:29;12.40;99.90
8565;DHT22;4320;51.498;6.556;2023-03-14T00:30:55;12.40;99.90
8565;DHT22;4320;51.498;6.556;2023-03-14T00:33:22;12.30;99.90
8565;DHT22;4320;51.498;6.556;2023-03-14T00:35:57;12.30;99.90
8565;DHT22;4320;51.498;6.556;2023-03-14T00:38:24;12.30;99.90
8565;DHT22;4320;51.498;6.556;2023-03-14T00:40:51;12.20;99.90
8565;DHT22;4320;51.498;6.556;2023-03-14T00:43:17;12.20;99.90
8565;DHT22;4320;51.498;6.556;2023-03-14T00:45:43;12.20;99.90
8565;DHT22;4320;51.498;6.556;2023-03-14T00:48:09;12.20;99.90
8565;DHT22;4320;51.498;6.556;2023-03-14T00:50:34;12.20;99.90
8565;DHT22;4320;51.498;6.556;2023-03-14T00:53:00;12.10;99.90
8565;DHT22;4320;51.498;6.556;2023-03-14T00:55:25;12.10;99.90
8565;DHT22;4320;51.498;6.556;2023-03-14T00:57:51;12.00;99.90
8565;DHT22;4320;51.498;6.556;2023-03-14T01:00:17;12.00;99.90
8565;DHT22;4320;51.498;6.556;2023-03-14T01:02:42;11.90;99.90
8565;DHT22;4320;51.498;6.556;2023-03-14T01:05:09;11.90;99.90
8565;DHT22;4320;51.498;6.556;2023-03-14T01:07:36;11.90;99.90
8565;DHT22;4320;51.498;6.556;2023-03-14T01:10:02;11.90;99.90
8565;DHT22;4320;51.498;6.556;2023-03-14T01:12:28;11.80;99.90
8565;DHT22;4320;51.498;6.556;2023-03-14T01:14:54;11.80;99.90
8565;DHT22;4320;51.498;6.556;2023-03-14T01:17:20;11.80;99.90
8565;DHT22;4320;51.498;6.556;2023-03-14T01:19:46;11.80;99.90
8565;DHT22;4320;51.498;6.556;2023-03-14T01:22:11;11.80;99.90
8565;DHT22;4320;51.498;6.556;2023-03-14T01:24:37;11.80;99.90
8565;DHT22;4320;51.498;6.556;2023-03-14T01:27:03;11.80;99.90
8565;DHT22;4320;51.498;6.556;2023-03-14T01:29:29;11.70;99.90
8565;DHT22;4320;51.498;6.556;2023-03-14T01:31:54;11.80;99.90
8565;DHT22;4320;51.498;6.556;2023-03-14T01:34:20;11.70;99.90
8565;DHT22;4320;51.498;6.556;2023-03-14T01:36:46;11.70;99.90
8565;DHT22;4320;51.498;6.556;2023-03-14T01:39:12;11.70;99.90
8565;DHT22;4320;51.498;6.556;2023-03-14T01:41:39;11.70;99.90
8565;DHT22;4320;51.498;6.556;2023-03-14T01:44:05;11.70;99.90
8565;DHT22;4320;51.498;6.556;2023-03-14T01:46:45;11.60;99.90
8565;DHT22;4320;51.498;6.556;2023-03-14T01:49:26;11.60;99.90
8565;DHT22;4320;51.498;6.556;2023-03-14T01:52:01;11.50;99.90
8565;DHT22;4320;51.498;6.556;2023-03-14T01:54:28;11.50;99.90
8565;DHT22;4320;51.498;6.556;2023-03-14T01:57:02;11.40;99.90
8565;DHT22;4320;51.498;6.556;2023-03-14T01:59:30;11.30;99.90
8565;DHT22;4320;51.498;6.556;2023-03-14T02:01:57;11.30;99.90
8565;DHT22;4320;51.498;6.556;2023-03-14T02:04:28;11.30;99.90
8565;DHT22;4320;51.498;6.556;2023-03-14T02:07:11;11.30;99.90
8565;DHT22;4320;51.498;6.556;2023-03-14T02:09:39;11.30;99.90
8565;DHT22;4320;51.498;6.556;2023-03-14T02:12:07;11.30;99.90
8565;DHT22;4320;51.498;6.556;2023-03-14T02:14:34;11.30;99.90
8565;DHT22;4320;51.498;6.556;2023-03-14T02:17:02;11.30;99.90
8565;DHT22;4320;51.498;6.556;2023-03-14T02:22:16;11.20;99.90
8565;DHT22;4320;51.498;6.556;2023-03-14T02:25:04;11.20;99.90
8565;DHT22;4320;51.498;6.556;2023-03-14T02:27:33;11.20;99.90
8565;DHT22;4320;51.498;6.556;2023-03-14T02:32:27;11.10;99.90
8565;DHT22;4320;51.498;6.556;2023-03-14T02:34:57;11.20;99.90
8565;DHT22;4320;51.498;6.556;2023-03-14T02:37:30;11.10;99.90
8565;DHT22;4320;51.498;6.556;2023-03-14T02:39:58;11.10;99.90
8565;DHT22;4320;51.498;6.556;2023-03-14T02:42:24;11.10;99.90
8565;DHT22;4320;51.498;6.556;2023-03-14T02:44:55;11.10;99.90
8565;DHT22;4320;51.498;6.556;2023-03-14T02:47:29;11.10;99.90
8565;DHT22;4320;51.498;6.556;2023-03-14T02:50:04;11.10;99.90
8565;DHT22;4320;51.498;6.556;2023-03-14T02:52:31;11.10;99.90
8565;DHT22;4320;51.498;6.556;2023-03-14T02:54:57;11.10;99.90
8565;DHT22;4320;51.498;6.556;2023-03-14T02:57:22;11.10;99.90
8565;DHT22;4320;51.498;6.556;2023-03-14T02:59:48;11.10;99.90
8565;DHT22;4320;51.498;6.556;2023-03-14T03:02:14;11.10;99.90
8565;DHT22;4320;51.498;6.556;2023-03-14T03:04:39;11.10;99.90
8565;DHT22;4320;51.498;6.556;2023-03-14T03:07:05;11.10;99.90
8565;DHT22;4320;51.498;6.556;2023-03-14T03:09:30;11.10;99.90
8565;DHT22;4320;51.498;6.556;2023-03-14T03:11:56;11.10;99.90
8565;DHT22;4320;51.498;6.556;2023-03-14T03:14:22;11.20;99.90
8565;DHT22;4320;51.498;6.556;2023-03-14T03:16:47;11.20;99.90
8565;DHT22;4320;51.498;6.556;2023-03-14T03:19:13;11.20;99.90
8565;DHT22;4320;51.498;6.556;2023-03-14T03:21:39;11.20;99.90
8565;DHT22;4320;51.498;6.556;2023-03-14T03:24:05;11.20;99.90
8565;DHT22;4320;51.498;6.556;2023-03-14T03:26:34;11.20;99.90
8565;DHT22;4320;51.498;6.556;2023-03-14T03:29:00;11.30;99.90
8565;DHT22;4320;51.498;6.556;2023-03-14T03:31:25;11.30;99.90
8565;DHT22;4320;51.498;6.556;2023-03-14T03:33:51;11.30;99.90
8565;DHT22;4320;51.498;6.556;2023-03-14T03:36:24;11.30;99.90
8565;DHT22;4320;51.498;6.556;2023-03-14T03:38:50;11.30;99.90
8565;DHT22;4320;51.498;6.556;2023-03-14T03:41:16;11.30;99.90
8565;DHT22;4320;51.498;6.556;2023-03-14T03:43:41;11.30;99.90
8565;DHT22;4320;51.498;6.556;2023-03-14T03:46:08;11.30;99.90
8565;DHT22;4320;51.498;6.556;2023-03-14T03:48:34;11.30;99.90
8565;DHT22;4320;51.498;6.556;2023-03-14T03:51:00;11.30;99.90
8565;DHT22;4320;51.498;6.556;2023-03-14T03:53:26;11.30;99.90
8565;DHT22;4320;51.498;6.556;2023-03-14T03:55:52;11.30;99.90
8565;DHT22;4320;51.498;6.556;2023-03-14T03:58:18;11.30;99.90
8565;DHT22;4320;51.498;6.556;2023-03-14T04:00:43;11.30;99.90
8565;DHT22;4320;51.498;6.556;2023-03-14T04:03:09;11.30;99.90
8565;DHT22;4320;51.498;6.556;2023-03-14T04:05:35;11.30;99.90
8565;DHT22;4320;51.498;6.556;2023-03-14T04:08:01;11.30;99.90
8565;DHT22;4320;51.498;6.556;2023-03-14T04:10:27;11.30;99.90
8565;DHT22;4320;51.498;6.556;2023-03-14T04:12:52;11.30;99.90
8565;DHT22;4320;51.498;6.556;2023-03-14T04:15:18;11.30;99.90
8565;DHT22;4320;51.498;6.556;2023-03-14T04:17:44;11.30;99.90
8565;DHT22;4320;51.498;6.556;2023-03-14T04:20:10;11.30;99.90
8565;DHT22;4320;51.498;6.556;2023-03-14T04:22:37;11.30;99.90
8565;DHT22;4320;51.498;6.556;2023-03-14T04:25:04;11.30;99.90
8565;DHT22;4320;51.498;6.556;2023-03-14T04:27:29;11.30;99.90
8565;DHT22;4320;51.498;6.556;2023-03-14T04:29:55;11.20;99.90
8565;DHT22;4320;51.498;6.556;2023-03-14T04:32:21;11.20;99.90
8565;DHT22;4320;51.498;6.556;2023-03-14T04:34:46;11.10;99.90
8565;DHT22;4320;51.498;6.556;2023-03-14T04:37:12;11.10;99.90
8565;DHT22;4320;51.498;6.556;2023-03-14T04:39:38;11.00;99.90
8565;DHT22;4320;51.498;6.556;2023-03-14T04:42:03;10.90;99.90
8565;DHT22;4320;51.498;6.556;2023-03-14T04:44:29;10.80;1.00
8565;DHT22;4320;51.498;6.556;2023-03-14T04:46:55;10.80;1.00
8565;DHT22;4320;51.498;6.556;2023-03-14T04:49:21;10.80;1.00
8565;DHT22;4320;51.498;6.556;2023-03-14T04:51:47;10.80;1.00
8565;DHT22;4320;51.498;6.556;2023-03-14T04:54:12;10.70;1.00
8565;DHT22;4320;51.498;6.556;2023-03-14T04:56:38;10.70;1.00
8565;DHT22;4320;51.498;6.556;2023-03-14T04:59:04;10.70;1.00
8565;DHT22;4320;51.498;6.556;2023-03-14T05:01:30;10.70;1.00
8565;DHT22;4320;51.498;6.556;2023-03-14T05:03:56;10.60;1.00
8565;DHT22;4320;51.498;6.556;2023-03-14T05:06:21;10.60;1.00
8565;DHT22;4320;51.498;6.556;2023-03-14T05:08:47;10.60;1.00
8565;DHT22;4320;51.498;6.556;2023-03-14T05:11:13;10.50;1.00
8565;DHT22;4320;51.498;6.556;2023-03-14T05:13:39;10.60;1.00
8565;DHT22;4320;51.498;6.556;2023-03-14T05:16:07;10.60;1.00
8565;DHT22;4320;51.498;6.556;2023-03-14T05:18:33;10.60;1.00
8565;DHT22;4320;51.498;6.556;2023-03-14T05:20:59;10.60;1.00
8565;DHT22;4320;51.498;6.556;2023-03-14T05:23:24;10.50;1.00
8565;DHT22;4320;51.498;6.556;2023-03-14T05:25:50;10.40;1.00
8565;DHT22;4320;51.498;6.556;2023-03-14T05:28:16;10.40;1.00
8565;DHT22;4320;51.498;6.556;2023-03-14T05:30:41;10.40;1.00
8565;DHT22;4320;51.498;6.556;2023-03-14T05:33:07;10.30;1.00
8565;DHT22;4320;51.498;6.556;2023-03-14T05:35:33;10.30;1.00
8565;DHT22;4320;51.498;6.556;2023-03-14T05:37:58;10.30;1.00
8565;DHT22;4320;51.498;6.556;2023-03-14T05:40:24;10.40;1.00
8565;DHT22;4320;51.498;6.556;2023-03-14T05:42:50;10.40;1.00
8565;DHT22;4320;51.498;6.556;2023-03-14T05:45:15;10.30;1.00
8565;DHT22;4320;51.498;6.556;2023-03-14T05:47:41;10.40;1.00
8565;DHT22;4320;51.498;6.556;2023-03-14T05:50:07;10.40;1.00
8565;DHT22;4320;51.498;6.556;2023-03-14T05:52:33;10.30;1.00
8565;DHT22;4320;51.498;6.556;2023-03-14T05:54:58;10.30;1.00
8565;DHT22;4320;51.498;6.556;2023-03-14T05:57:24;10.30;1.00
8565;DHT22;4320;51.498;6.556;2023-03-14T05:59:49;10.30;1.00
8565;DHT22;4320;51.498;6.556;2023-03-14T06:02:15;10.30;1.00
8565;DHT22;4320;51.498;6.556;2023-03-14T06:04:41;10.30;1.00
8565;DHT22;4320;51.498;6.556;2023-03-14T06:07:06;10.30;1.00
8565;DHT22;4320;51.498;6.556;2023-03-14T06:09:32;10.30;1.00
8565;DHT22;4320;51.498;6.556;2023-03-14T06:11:57;10.40;1.00
8565;DHT22;4320;51.498;6.556;2023-03-14T06:14:23;10.40;1.00
8565;DHT22;4320;51.498;6.556;2023-03-14T06:16:48;10.40;1.00
8565;DHT22;4320;51.498;6.556;2023-03-14T06:19:14;10.50;1.00
8565;DHT22;4320;51.498;6.556;2023-03-14T06:21:40;10.50;1.00
8565;DHT22;4320;51.498;6.556;2023-03-14T06:24:06;10.60;1.00
8565;DHT22;4320;51.498;6.556;2023-03-14T06:26:32;10.60;1.00
8565;DHT22;4320;51.498;6.556;2023-03-14T06:28:58;10.70;1.00
8565;DHT22;4320;51.498;6.556;2023-03-14T06:31:29;10.70;1.00
8565;DHT22;4320;51.498;6.556;2023-03-14T06:33:54;10.70;1.00
8565;DHT22;4320;51.498;6.556;2023-03-14T06:36:20;10.80;1.00
8565;DHT22;4320;51.498;6.556;2023-03-14T06:38:46;10.90;1.00
8565;DHT22;4320;51.498;6.556;2023-03-14T06:41:11;10.90;1.00
8565;DHT22;4320;51.498;6.556;2023-03-14T06:43:37;10.90;1.00
8565;DHT22;4320;51.498;6.556;2023-03-14T06:46:02;11.00;1.00
8565;DHT22;4320;51.498;6.556;2023-03-14T06:48:28;11.00;1.00
8565;DHT22;4320;51.498;6.556;2023-03-14T06:50:55;11.00;1.00
8565;DHT22;4320;51.498;6.556;2023-03-14T06:53:20;11.00;1.00
8565;DHT22;4320;51.498;6.556;2023-03-14T06:55:46;11.10;1.00
8565;DHT22;4320;51.498;6.556;2023-03-14T06:58:12;11.10;1.00
8565;DHT22;4320;51.498;6.556;2023-03-14T07:00:38;11.10;1.00
8565;DHT22;4320;51.498;6.556;2023-03-14T07:03:03;11.10;1.00
8565;DHT22;4320;51.498;6.556;2023-03-14T07:05:29;11.10;1.00
8565;DHT22;4320;51.498;6.556;2023-03-14T07:07:54;11.10;1.00
8565;DHT22;4320;51.498;6.556;2023-03-14T07:10:20;11.10;1.00
8565;DHT22;4320;51.498;6.556;2023-03-14T07:12:46;11.10;1.00
8565;DHT22;4320;51.498;6.556;2023-03-14T07:15:11;11.10;1.00
8565;DHT22;4320;51.498;6.556;2023-03-14T07:17:37;11.00;1.00
8565;DHT22;4320;51.498;6.556;2023-03-14T07:20:03;11.00;1.00
8565;DHT22;4320;51.498;6.556;2023-03-14T07:22:32;11.00;1.00
8565;DHT22;4320;51.498;6.556;2023-03-14T07:24:58;11.10;1.00
8565;DHT22;4320;51.498;6.556;2023-03-14T07:27:23;11.20;1.00
8565;DHT22;4320;51.498;6.556;2023-03-14T07:29:49;11.20;1.00
8565;DHT22;4320;51.498;6.556;2023-03-14T07:32:14;11.20;1.00
8565;DHT22;4320;51.498;6.556;2023-03-14T07:34:43;11.30;1.00
8565;DHT22;4320;51.498;6.556;2023-03-14T07:37:09;11.30;1.00
8565;DHT22;4320;51.498;6.556;2023-03-14T07:39:35;11.30;1.00
8565;DHT22;4320;51.498;6.556;2023-03-14T07:42:01;11.40;1.00
8565;DHT22;4320;51.498;6.556;2023-03-14T07:44:26;11.40;1.00
8565;DHT22;4320;51.498;6.556;2023-03-14T07:46:52;11.40;1.00
8565;DHT22;4320;51.498;6.556;2023-03-14T07:49:18;11.50;1.00
8565;DHT22;4320;51.498;6.556;2023-03-14T07:51:43;11.50;1.00
8565;DHT22;4320;51.498;6.556;2023-03-14T07:54:10;11.50;1.00
8565;DHT22;4320;51.498;6.556;2023-03-14T07:56:35;11.50;1.00
8565;DHT22;4320;51.498;6.556;2023-03-14T07:59:01;11.60;1.00
8565;DHT22;4320;51.498;6.556;2023-03-14T08:01:27;11.70;1.00
8565;DHT22;4320;51.498;6.556;2023-03-14T08:03:53;11.80;1.00
8565;DHT22;4320;51.498;6.556;2023-03-14T08:06:18;11.90;1.00
8565;DHT22;4320;51.498;6.556;2023-03-14T08:08:44;12.00;1.00
8565;DHT22;4320;51.498;6.556;2023-03-14T08:11:10;12.00;1.00
8565;DHT22;4320;51.498;6.556;2023-03-14T08:13:37;12.00;1.00
8565;DHT22;4320;51.498;6.556;2023-03-14T08:16:03;12.00;1.00
8565;DHT22;4320;51.498;6.556;2023-03-14T08:18:29;11.90;1.00
8565;DHT22;4320;51.498;6.556;2023-03-14T08:20:55;11.90;1.00
8565;DHT22;4320;51.498;6.556;2023-03-14T08:23:21;11.90;1.00
8565;DHT22;4320;51.498;6.556;2023-03-14T08:25:50;11.90;1.00
8565;DHT22;4320;51.498;6.556;2023-03-14T08:28:16;11.90;1.00
8565;DHT22;4320;51.498;6.556;2023-03-14T08:30:42;11.80;1.00
8565;DHT22;4320;51.498;6.556;2023-03-14T08:33:08;11.80;1.00
8565;DHT22;4320;51.498;6.556;2023-03-14T08:35:33;11.90;1.00
8565;DHT22;4320;51.498;6.556;2023-03-14T08:37:59;12.00;1.00
8565;DHT22;4320;51.498;6.556;2023-03-14T08:40:25;12.00;1.00
8565;DHT22;4320;51.498;6.556;2023-03-14T08:42:50;11.90;1.00
8565;DHT22;4320;51.498;6.556;2023-03-14T08:45:16;11.90;1.00
8565;DHT22;4320;51.498;6.556;2023-03-14T08:47:43;11.90;1.00
8565;DHT22;4320;51.498;6.556;2023-03-14T08:50:09;12.00;1.00
8565;DHT22;4320;51.498;6.556;2023-03-14T08:52:35;12.00;1.00
8565;DHT22;4320;51.498;6.556;2023-03-14T08:55:03;11.60;99.90
8565;DHT22;4320;51.498;6.556;2023-03-14T08:57:29;11.10;99.90
8565;DHT22;4320;51.498;6.556;2023-03-14T08:59:55;10.80;99.90
8565;DHT22;4320;51.498;6.556;2023-03-14T09:02:22;10.50;99.90
8565;DHT22;4320;51.498;6.556;2023-03-14T09:04:50;10.30;1.00
8565;DHT22;4320;51.498;6.556;2023-03-14T09:07:16;10.20;1.00
8565;DHT22;4320;51.498;6.556;2023-03-14T09:09:42;10.10;1.00
8565;DHT22;4320;51.498;6.556;2023-03-14T09:12:07;10.10;1.00
8565;DHT22;4320;51.498;6.556;2023-03-14T09:14:33;10.00;1.00
8565;DHT22;4320;51.498;6.556;2023-03-14T09:16:59;10.00;1.00
8565;DHT22;4320;51.498;6.556;2023-03-14T09:19:24;10.00;1.00
8565;DHT22;4320;51.498;6.556;2023-03-14T09:21:50;10.00;1.00
8565;DHT22;4320;51.498;6.556;2023-03-14T09:24:16;9.90;1.00
8565;DHT22;4320;51.498;6.556;2023-03-14T09:26:42;9.90;1.00
8565;DHT22;4320;51.498;6.556;2023-03-14T09:29:08;10.00;1.00
8565;DHT22;4320;51.498;6.556;2023-03-14T09:31:34;9.90;1.00
8565;DHT22;4320;51.498;6.556;2023-03-14T09:34:00;9.90;1.00
8565;DHT22;4320;51.498;6.556;2023-03-14T09:36:26;9.60;1.00
8565;DHT22;4320;51.498;6.556;2023-03-14T09:38:52;9.70;1.00
8565;DHT22;4320;51.498;6.556;2023-03-14T09:41:38;9.60;1.00
8565;DHT22;4320;51.498;6.556;2023-03-14T09:44:14;9.70;1.00
8565;DHT22;4320;51.498;6.556;2023-03-14T09:46:42;9.60;1.00
8565;DHT22;4320;51.498;6.556;2023-03-14T09:49:18;9.70;1.00
8565;DHT22;4320;51.498;6.556;2023-03-14T09:51:51;9.70;1.00
8565;DHT22;4320;51.498;6.556;2023-03-14T09:57:00;9.80;1.00
8565;DHT22;4320;51.498;6.556;2023-03-14T09:59:27;9.60;1.00
8565;DHT22;4320;51.498;6.556;2023-03-14T10:02:00;9.70;1.00
8565;DHT22;4320;51.498;6.556;2023-03-14T10:04:27;9.70;1.00
8565;DHT22;4320;51.498;6.556;2023-03-14T10:06:53;9.80;1.00
8565;DHT22;4320;51.498;6.556;2023-03-14T10:09:23;9.90;1.00
8565;DHT22;4320;51.498;6.556;2023-03-14T10:11:55;9.80;99.90
8565;DHT22;4320;51.498;6.556;2023-03-14T10:14:37;9.80;99.90
8565;DHT22;4320;51.498;6.556;2023-03-14T10:17:08;9.70;99.90
8565;DHT22;4320;51.498;6.556;2023-03-14T10:19:36;9.50;99.90
8565;DHT22;4320;51.498;6.556;2023-03-14T10:22:03;9.40;99.90
8565;DHT22;4320;51.498;6.556;2023-03-14T10:24:34;9.30;99.90
8565;DHT22;4320;51.498;6.556;2023-03-14T10:27:18;9.20;99.90
8565;DHT22;4320;51.498;6.556;2023-03-14T10:29:53;9.30;99.90
8565;DHT22;4320;51.498;6.556;2023-03-14T10:32:20;9.30;99.90
8565;DHT22;4320;51.498;6.556;2023-03-14T10:35:07;9.30;99.90
8565;DHT22;4320;51.498;6.556;2023-03-14T10:37:34;9.20;99.90
8565;DHT22;4320;51.498;6.556;2023-03-14T10:40:02;9.10;99.90
8565;DHT22;4320;51.498;6.556;2023-03-14T10:42:42;9.00;99.90
8565;DHT22;4320;51.498;6.556;2023-03-14T10:45:30;9.00;99.90
8565;DHT22;4320;51.498;6.556;2023-03-14T10:47:59;9.10;99.90
8565;DHT22;4320;51.498;6.556;2023-03-14T10:50:28;9.10;99.90
8565;DHT22;4320;51.498;6.556;2023-03-14T10:52:55;9.20;99.90
8565;DHT22;4320;51.498;6.556;2023-03-14T10:55:22;9.30;99.90
8565;DHT22;4320;51.498;6.556;2023-03-14T10:57:48;9.50;99.90
8565;DHT22;4320;51.498;6.556;2023-03-14T11:00:19;9.70;99.90
8565;DHT22;4320;51.498;6.556;2023-03-14T11:03:11;10.00;99.90
8565;DHT22;4320;51.498;6.556;2023-03-14T11:08:46;10.10;99.90
8565;DHT22;4320;51.498;6.556;2023-03-14T11:11:21;10.00;99.90
8565;DHT22;4320;51.498;6.556;2023-03-14T11:17:05;10.00;99.90
8565;DHT22;4320;51.498;6.556;2023-03-14T11:19:42;9.80;99.90
8565;DHT22;4320;51.498;6.556;2023-03-14T11:22:30;9.70;99.90
8565;DHT22;4320;51.498;6.556;2023-03-14T11:25:06;9.70;99.90
8565;DHT22;4320;51.498;6.556;2023-03-14T11:27:41;9.50;99.90
8565;DHT22;4320;51.498;6.556;2023-03-14T11:33:02;9.20;99.90
8565;DHT22;4320;51.498;6.556;2023-03-14T11:35:30;9.20;99.90
8565;DHT22;4320;51.498;6.556;2023-03-14T11:40:38;9.70;99.90
8565;DHT22;4320;51.498;6.556;2023-03-14T11:45:41;10.30;99.90
8565;DHT22;4320;51.498;6.556;2023-03-14T11:48:34;10.40;99.90
8565;DHT22;4320;51.498;6.556;2023-03-14T11:51:02;10.50;99.90
8565;DHT22;4320;51.498;6.556;2023-03-14T11:56:19;11.10;99.90
8565;DHT22;4320;51.498;6.556;2023-03-14T11:58:55;11.10;99.90
8565;DHT22;4320;51.498;6.556;2023-03-14T12:01:30;11.20;99.90
8565;DHT22;4320;51.498;6.556;2023-03-14T12:04:11;11.30;99.90
8565;DHT22;4320;51.498;6.556;2023-03-14T12:06:47;11.20;99.90
8565;DHT22;4320;51.498;6.556;2023-03-14T12:09:14;11.00;99.90
8565;DHT22;4320;51.498;6.556;2023-03-14T12:11:50;10.70;99.90
8565;DHT22;4320;51.498;6.556;2023-03-14T12:14:28;10.40;99.90
8565;DHT22;4320;51.498;6.556;2023-03-14T12:17:03;9.90;99.90
8565;DHT22;4320;51.498;6.556;2023-03-14T12:19:32;9.40;99.90
8565;DHT22;4320;51.498;6.556;2023-03-14T12:22:06;9.00;99.90
8565;DHT22;4320;51.498;6.556;2023-03-14T12:24:36;8.90;99.90
8565;DHT22;4320;51.498;6.556;2023-03-14T12:27:05;8.80;99.90
8565;DHT22;4320;51.498;6.556;2023-03-14T12:29:57;8.80;99.90
8565;DHT22;4320;51.498;6.556;2023-03-14T12:32:24;8.90;99.90
8565;DHT22;4320;51.498;6.556;2023-03-14T12:34:51;9.20;99.90
8565;DHT22;4320;51.498;6.556;2023-03-14T12:37:35;9.50;99.90
8565;DHT22;4320;51.498;6.556;2023-03-14T12:42:40;9.80;99.90
8565;DHT22;4320;51.498;6.556;2023-03-14T12:45:34;10.10;99.90
8565;DHT22;4320;51.498;6.556;2023-03-14T12:50:37;10.50;99.90
8565;DHT22;4320;51.498;6.556;2023-03-14T13:01:25;9.80;99.90
8565;DHT22;4320;51.498;6.556;2023-03-14T13:04:04;9.40;99.90
8565;DHT22;4320;51.498;6.556;2023-03-14T13:09:34;9.10;99.90
8565;DHT22;4320;51.498;6.556;2023-03-14T13:12:10;9.30;99.90
8565;DHT22;4320;51.498;6.556;2023-03-14T13:14:41;9.50;99.90
8565;DHT22;4320;51.498;6.556;2023-03-14T13:17:12;9.50;99.90
8565;DHT22;4320;51.498;6.556;2023-03-14T13:19:38;9.60;99.90
8565;DHT22;4320;51.498;6.556;2023-03-14T13:22:12;9.70;99.90
8565;DHT22;4320;51.498;6.556;2023-03-14T13:24:40;9.70;99.90
8565;DHT22;4320;51.498;6.556;2023-03-14T13:27:18;9.70;99.90
8565;DHT22;4320;51.498;6.556;2023-03-14T13:29:48;10.10;99.90
8565;DHT22;4320;51.498;6.556;2023-03-14T13:32:22;10.30;99.90
8565;DHT22;4320;51.498;6.556;2023-03-14T13:34:51;10.30;99.90
8565;DHT22;4320;51.498;6.556;2023-03-14T13:37:21;10.40;99.90
8565;DHT22;4320;51.498;6.556;2023-03-14T13:39:56;10.50;99.90
8565;DHT22;4320;51.498;6.556;2023-03-14T13:42:28;10.70;99.90
8565;DHT22;4320;51.498;6.556;2023-03-14T13:44:55;10.80;99.90
8565;DHT22;4320;51.498;6.556;2023-03-14T13:47:23;10.80;91.40
8565;DHT22;4320;51.498;6.556;2023-03-14T13:49:50;10.80;68.10
8565;DHT22;4320;51.498;6.556;2023-03-14T13:52:36;10.70;50.70
8565;DHT22;4320;51.498;6.556;2023-03-14T13:55:05;10.50;40.30
8565;DHT22;4320;51.498;6.556;2023-03-14T13:57:49;10.70;35.40
8565;DHT22;4320;51.498;6.556;2023-03-14T14:00:21;10.70;31.00
8565;DHT22;4320;51.498;6.556;2023-03-14T14:02:48;10.90;25.70
8565;DHT22;4320;51.498;6.556;2023-03-14T14:05:14;11.00;11.40
8565;DHT22;4320;51.498;6.556;2023-03-14T14:07:40;11.00;1.00
8565;DHT22;4320;51.498;6.556;2023-03-14T14:10:12;10.90;1.00
8565;DHT22;4320;51.498;6.556;2023-03-14T14:15:14;11.00;1.00
8565;DHT22;4320;51.498;6.556;2023-03-14T14:17:48;11.10;1.00
8565;DHT22;4320;51.498;6.556;2023-03-14T14:23:01;11.30;1.00
8565;DHT22;4320;51.498;6.556;2023-03-14T14:25:29;11.30;1.00
8565;DHT22;4320;51.498;6.556;2023-03-14T14:27:54;11.30;1.00
8565;DHT22;4320;51.498;6.556;2023-03-14T14:32:48;11.00;1.00
8565;DHT22;4320;51.498;6.556;2023-03-14T14:35:25;10.80;1.00
8565;DHT22;4320;51.498;6.556;2023-03-14T14:37:52;10.80;1.00
8565;DHT22;4320;51.498;6.556;2023-03-14T14:40:20;10.80;1.00
8565;DHT22;4320;51.498;6.556;2023-03-14T14:42:47;10.60;1.00
8565;DHT22;4320;51.498;6.556;2023-03-14T14:45:24;10.60;1.00
8565;DHT22;4320;51.498;6.556;2023-03-14T14:47:54;10.50;1.00
8565;DHT22;4320;51.498;6.556;2023-03-14T14:50:32;10.40;1.00
8565;DHT22;4320;51.498;6.556;2023-03-14T14:53:03;10.40;1.00
8565;DHT22;4320;51.498;6.556;2023-03-14T14:55:43;10.40;1.00
8565;DHT22;4320;51.498;6.556;2023-03-14T15:00:57;10.20;1.00
8565;DHT22;4320;51.498;6.556;2023-03-14T15:03:28;10.20;1.00
8565;DHT22;4320;51.498;6.556;2023-03-14T15:05:54;10.10;1.00
8565;DHT22;4320;51.498;6.556;2023-03-14T15:08:24;10.00;1.00
8565;DHT22;4320;51.498;6.556;2023-03-14T15:10:50;10.00;1.00
8565;DHT22;4320;51.498;6.556;2023-03-14T15:13:16;10.10;1.00
8565;DHT22;4320;51.498;6.556;2023-03-14T15:15:42;10.00;1.00
8565;DHT22;4320;51.498;6.556;2023-03-14T15:18:13;10.00;1.00
8565;DHT22;4320;51.498;6.556;2023-03-14T15:20:39;9.90;1.00
8565;DHT22;4320;51.498;6.556;2023-03-14T15:23:10;9.90;1.00
8565;DHT22;4320;51.498;6.556;2023-03-14T15:25:36;9.90;1.00
8565;DHT22;4320;51.498;6.556;2023-03-14T15:28:10;9.80;1.00
8565;DHT22;4320;51.498;6.556;2023-03-14T15:30:37;9.80;1.00
8565;DHT22;4320;51.498;6.556;2023-03-14T15:33:03;9.80;1.00
8565;DHT22;4320;51.498;6.556;2023-03-14T15:35:28;9.90;1.00
8565;DHT22;4320;51.498;6.556;2023-03-14T15:37:54;9.90;1.00
8565;DHT22;4320;51.498;6.556;2023-03-14T15:40:27;10.00;1.00
8565;DHT22;4320;51.498;6.556;2023-03-14T15:42:52;9.90;1.00
8565;DHT22;4320;51.498;6.556;2023-03-14T15:45:18;9.90;1.00
8565;DHT22;4320;51.498;6.556;2023-03-14T15:47:44;9.80;1.00
8565;DHT22;4320;51.498;6.556;2023-03-14T15:50:10;9.80;1.00
8565;DHT22;4320;51.498;6.556;2023-03-14T15:52:36;9.80;1.00
8565;DHT22;4320;51.498;6.556;2023-03-14T15:55:02;9.70;1.00
8565;DHT22;4320;51.498;6.556;2023-03-14T15:57:28;9.70;1.00
8565;DHT22;4320;51.498;6.556;2023-03-14T15:59:54;9.60;1.00
8565;DHT22;4320;51.498;6.556;2023-03-14T16:02:19;9.60;1.00
8565;DHT22;4320;51.498;6.556;2023-03-14T16:04:45;9.60;1.00
8565;DHT22;4320;51.498;6.556;2023-03-14T16:07:10;9.50;1.00
8565;DHT22;4320;51.498;6.556;2023-03-14T16:09:36;9.40;1.00
8565;DHT22;4320;51.498;6.556;2023-03-14T16:12:02;9.30;1.00
8565;DHT22;4320;51.498;6.556;2023-03-14T16:14:30;9.30;1.00
8565;DHT22;4320;51.498;6.556;2023-03-14T16:16:56;9.40;1.00
8565;DHT22;4320;51.498;6.556;2023-03-14T16:19:25;9.40;1.00
8565;DHT22;4320;51.498;6.556;2023-03-14T16:21:52;9.30;1.00
8565;DHT22;4320;51.498;6.556;2023-03-14T16:24:18;9.30;1.00
8565;DHT22;4320;51.498;6.556;2023-03-14T16:26:44;9.20;1.00
8565;DHT22;4320;51.498;6.556;2023-03-14T16:29:10;9.20;1.00
8565;DHT22;4320;51.498;6.556;2023-03-14T16:31:36;9.10;1.00
8565;DHT22;4320;51.498;6.556;2023-03-14T16:34:08;9.10;1.00
8565;DHT22;4320;51.498;6.556;2023-03-14T16:36:34;9.00;1.00
8565;DHT22;4320;51.498;6.556;2023-03-14T16:39:00;9.00;1.00
8565;DHT22;4320;51.498;6.556;2023-03-14T16:41:25;9.00;1.00
8565;DHT22;4320;51.498;6.556;2023-03-14T16:43:59;9.00;1.00
8565;DHT22;4320;51.498;6.556;2023-03-14T16:46:26;8.90;1.00
8565;DHT22;4320;51.498;6.556;2023-03-14T16:48:53;8.90;1.00
8565;DHT22;4320;51.498;6.556;2023-03-14T16:51:19;8.80;1.00
8565;DHT22;4320;51.498;6.556;2023-03-14T16:53:45;8.80;1.00
8565;DHT22;4320;51.498;6.556;2023-03-14T16:56:14;8.80;1.00
8565;DHT22;4320;51.498;6.556;2023-03-14T16:58:39;8.80;1.00
8565;DHT22;4320;51.498;6.556;2023-03-14T17:01:07;8.80;1.00
8565;DHT22;4320;51.498;6.556;2023-03-14T17:03:43;8.80;1.00
8565;DHT22;4320;51.498;6.556;2023-03-14T17:06:14;8.80;1.00
8565;DHT22;4320;51.498;6.556;2023-03-14T17:08:41;8.70;1.00
8565;DHT22;4320;51.498;6.556;2023-03-14T17:11:07;8.60;1.00
8565;DHT22;4320;51.498;6.556;2023-03-14T17:13:34;8.50;1.00